<?xml version="1.0" encoding="UTF-8" standalone="no" ?>
<gpx xmlns="http://www.topografix.com/GPX/1/1" xmlns:xsi="http://www.w3.org/2001/XMLSchema-instance" xsi:schemaLocation="http://www.topografix.com/GPX/1/1 http://www.topografix.com/GPX/1/1/gpx.xsd" version="1.1" creator="VisuGPX - https://www.visugpx.com">
  <metadata>
    <name>Macif 18 - Vendredi 6 Juin 2014</name>
    <desc><![CDATA[Macif 18 - Vendredi 6 Juin 2014]]></desc>
  </metadata>
  <trk>
    <name><![CDATA[Macif 18 - Vendredi 6 Juin 2014_1]]></name>
    <trkseg>
      <trkpt lat="46.14466" lon="-1.16539">
        <ele>60</ele>
        <time>2014-06-06T07:35:06Z</time>
      </trkpt>
      <trkpt lat="46.14477" lon="-1.16539">
        <ele>59</ele>
        <time>2014-06-06T07:45:17Z</time>
      </trkpt>
      <trkpt lat="46.14466" lon="-1.16532">
        <ele>48</ele>
        <time>2014-06-06T07:55:41Z</time>
      </trkpt>
      <trkpt lat="46.14478" lon="-1.16525">
        <ele>60</ele>
        <time>2014-06-06T08:17:10Z</time>
      </trkpt>
      <trkpt lat="46.14463" lon="-1.1653">
        <ele>53</ele>
        <time>2014-06-06T08:22:13Z</time>
      </trkpt>
      <trkpt lat="46.14473" lon="-1.16502">
        <ele>43</ele>
        <time>2014-06-06T08:27:17Z</time>
      </trkpt>
      <trkpt lat="46.14472" lon="-1.16525">
        <ele>61</ele>
        <time>2014-06-06T08:33:18Z</time>
      </trkpt>
      <trkpt lat="46.14628" lon="-1.16782">
        <ele>56</ele>
        <time>2014-06-06T08:38:23Z</time>
      </trkpt>
      <trkpt lat="46.14702" lon="-1.17404">
        <ele>27</ele>
        <time>2014-06-06T08:43:27Z</time>
      </trkpt>
      <trkpt lat="46.14553" lon="-1.1769">
        <ele>43</ele>
        <time>2014-06-06T08:48:44Z</time>
      </trkpt>
      <trkpt lat="46.13898" lon="-1.18193">
        <ele>49</ele>
        <time>2014-06-06T08:54:03Z</time>
      </trkpt>
      <trkpt lat="46.13094" lon="-1.18562">
        <ele>42</ele>
        <time>2014-06-06T08:59:09Z</time>
      </trkpt>
      <trkpt lat="46.12061" lon="-1.19195">
        <ele>44</ele>
        <time>2014-06-06T09:05:06Z</time>
      </trkpt>
      <trkpt lat="46.11276" lon="-1.19312">
        <ele>34</ele>
        <time>2014-06-06T09:10:10Z</time>
      </trkpt>
      <trkpt lat="46.10453" lon="-1.19396">
        <ele>59</ele>
        <time>2014-06-06T09:15:14Z</time>
      </trkpt>
      <trkpt lat="46.09562" lon="-1.1957">
        <ele>28</ele>
        <time>2014-06-06T09:20:18Z</time>
      </trkpt>
      <trkpt lat="46.0862" lon="-1.19878">
        <ele>42</ele>
        <time>2014-06-06T09:25:22Z</time>
      </trkpt>
      <trkpt lat="46.07616" lon="-1.20268">
        <ele>23</ele>
        <time>2014-06-06T09:31:16Z</time>
      </trkpt>
      <trkpt lat="46.06725" lon="-1.20598">
        <ele>28</ele>
        <time>2014-06-06T09:37:06Z</time>
      </trkpt>
      <trkpt lat="46.06323" lon="-1.20479">
        <ele>43</ele>
        <time>2014-06-06T09:42:10Z</time>
      </trkpt>
      <trkpt lat="46.06462" lon="-1.19482">
        <ele>41</ele>
        <time>2014-06-06T09:48:04Z</time>
      </trkpt>
      <trkpt lat="46.06161" lon="-1.18943">
        <ele>44</ele>
        <time>2014-06-06T09:55:20Z</time>
      </trkpt>
      <trkpt lat="46.05252" lon="-1.19061">
        <ele>17</ele>
        <time>2014-06-06T10:01:19Z</time>
      </trkpt>
      <trkpt lat="46.04423" lon="-1.19226">
        <ele>44</ele>
        <time>2014-06-06T10:06:55Z</time>
      </trkpt>
      <trkpt lat="46.03573" lon="-1.19351">
        <ele>75</ele>
        <time>2014-06-06T10:12:04Z</time>
      </trkpt>
      <trkpt lat="46.02781" lon="-1.19598">
        <ele>49</ele>
        <time>2014-06-06T10:17:06Z</time>
      </trkpt>
      <trkpt lat="46.01932" lon="-1.19948">
        <ele>24</ele>
        <time>2014-06-06T10:22:08Z</time>
      </trkpt>
      <trkpt lat="46.01136" lon="-1.20225">
        <ele>30</ele>
        <time>2014-06-06T10:27:12Z</time>
      </trkpt>
      <trkpt lat="46.00929" lon="-1.19598">
        <ele>32</ele>
        <time>2014-06-06T10:32:17Z</time>
      </trkpt>
      <trkpt lat="46.0111" lon="-1.18543">
        <ele>49</ele>
        <time>2014-06-06T10:37:21Z</time>
      </trkpt>
      <trkpt lat="46.01229" lon="-1.18123">
        <ele>102</ele>
        <time>2014-06-06T10:42:25Z</time>
      </trkpt>
      <trkpt lat="46.0114" lon="-1.18393">
        <ele>44</ele>
        <time>2014-06-06T10:47:45Z</time>
      </trkpt>
      <trkpt lat="46.01144" lon="-1.18288">
        <ele>59</ele>
        <time>2014-06-06T10:53:03Z</time>
      </trkpt>
      <trkpt lat="46.0118" lon="-1.18293">
        <ele>44</ele>
        <time>2014-06-06T10:58:07Z</time>
      </trkpt>
      <trkpt lat="46.01152" lon="-1.18294">
        <ele>33</ele>
        <time>2014-06-06T11:03:12Z</time>
      </trkpt>
      <trkpt lat="46.01146" lon="-1.18278">
        <ele>36</ele>
        <time>2014-06-06T11:13:28Z</time>
      </trkpt>
      <trkpt lat="46.01165" lon="-1.18283">
        <ele>50</ele>
        <time>2014-06-06T11:18:33Z</time>
      </trkpt>
      <trkpt lat="46.01155" lon="-1.1828">
        <ele>52</ele>
        <time>2014-06-06T11:25:15Z</time>
      </trkpt>
      <trkpt lat="46.01163" lon="-1.18287">
        <ele>42</ele>
        <time>2014-06-06T11:45:44Z</time>
      </trkpt>
      <trkpt lat="46.01152" lon="-1.1828">
        <ele>43</ele>
        <time>2014-06-06T11:50:49Z</time>
      </trkpt>
      <trkpt lat="46.01156" lon="-1.18299">
        <ele>27</ele>
        <time>2014-06-06T12:01:30Z</time>
      </trkpt>
      <trkpt lat="46.01153" lon="-1.18284">
        <ele>33</ele>
        <time>2014-06-06T12:06:34Z</time>
      </trkpt>
      <trkpt lat="46.01593" lon="-1.18638">
        <ele>36</ele>
        <time>2014-06-06T12:22:36Z</time>
      </trkpt>
      <trkpt lat="46.02205" lon="-1.19127">
        <ele>43</ele>
        <time>2014-06-06T12:27:40Z</time>
      </trkpt>
      <trkpt lat="46.03117" lon="-1.19168">
        <ele>47</ele>
        <time>2014-06-06T12:33:35Z</time>
      </trkpt>
      <trkpt lat="46.03808" lon="-1.19471">
        <ele>38</ele>
        <time>2014-06-06T12:38:39Z</time>
      </trkpt>
      <trkpt lat="46.04834" lon="-1.1954">
        <ele>42</ele>
        <time>2014-06-06T12:43:44Z</time>
      </trkpt>
      <trkpt lat="46.06006" lon="-1.19535">
        <ele>48</ele>
        <time>2014-06-06T12:49:32Z</time>
      </trkpt>
      <trkpt lat="46.07582" lon="-1.19406">
        <ele>65</ele>
        <time>2014-06-06T12:57:06Z</time>
      </trkpt>
      <trkpt lat="46.0873" lon="-1.19013">
        <ele>53</ele>
        <time>2014-06-06T13:03:07Z</time>
      </trkpt>
      <trkpt lat="46.09824" lon="-1.18836">
        <ele>45</ele>
        <time>2014-06-06T13:09:06Z</time>
      </trkpt>
      <trkpt lat="46.10783" lon="-1.18686">
        <ele>59</ele>
        <time>2014-06-06T13:14:19Z</time>
      </trkpt>
      <trkpt lat="46.11673" lon="-1.18495">
        <ele>44</ele>
        <time>2014-06-06T13:19:23Z</time>
      </trkpt>
      <trkpt lat="46.12638" lon="-1.18573">
        <ele>55</ele>
        <time>2014-06-06T13:25:34Z</time>
      </trkpt>
      <trkpt lat="46.13274" lon="-1.18473">
        <ele>55</ele>
        <time>2014-06-06T13:30:38Z</time>
      </trkpt>
      <trkpt lat="46.14106" lon="-1.18188">
        <ele>56</ele>
        <time>2014-06-06T13:37:05Z</time>
      </trkpt>
      <trkpt lat="46.14293" lon="-1.18261">
        <ele>48</ele>
        <time>2014-06-06T13:42:06Z</time>
      </trkpt>
      <trkpt lat="46.14446" lon="-1.17963">
        <ele>65</ele>
        <time>2014-06-06T13:47:11Z</time>
      </trkpt>
      <trkpt lat="46.14709" lon="-1.1734">
        <ele>49</ele>
        <time>2014-06-06T13:52:15Z</time>
      </trkpt>
      <trkpt lat="46.14739" lon="-1.16897">
        <ele>54</ele>
        <time>2014-06-06T13:57:20Z</time>
      </trkpt>
      <trkpt lat="46.14627" lon="-1.16781">
        <ele>49</ele>
        <time>2014-06-06T14:02:25Z</time>
      </trkpt>
      <trkpt lat="46.14461" lon="-1.16527">
        <ele>51</ele>
        <time>2014-06-06T14:07:30Z</time>
      </trkpt>
    </trkseg>
  </trk>
</gpx>